Time;durP1;ratioP1;P1;durP2;ratioP2;P2;SDS_P1;SDS_P2;PMS_P1;PMS_P2;Temp;Humidity;BMP_temperature;BMP_pressure;BME280_temperature;BME280_humidity;BME280_pressure;Samples;Min_cycle;Max_cycle;Signal;HPM_P1;HPM_P2
2023/04/27 00:02:01;;;;;;;0.10;0.10;;;;;;;;;;4955208;28;20126;-77
2023/04/27 00:04:47;;;;;;;0.10;0.10;;;;;;;;;;4950268;28;20039;-76
2023/04/27 00:07:32;;;;;;;0.10;0.10;;;;;;;;;;4963826;28;20112;-76
2023/04/27 00:10:18;;;;;;;0.10;0.10;;;;;;;;;;4969023;28;20043;-77
2023/04/27 00:13:04;;;;;;;0.10;0.10;;;;;;;;;;4967773;28;20045;-77
2023/04/27 00:15:50;;;;;;;0.10;0.10;;;;;;;;;;4966696;28;20310;-76
2023/04/27 00:18:37;;;;;;;0.10;0.10;;;;;;;;;;4966354;28;20027;-77
2023/04/27 00:21:22;;;;;;;0.20;0.20;;;;;;;;;;4967545;28;20101;-75
2023/04/27 00:24:08;;;;;;;0.13;0.13;;;;;;;;;;4967743;28;20603;-77
2023/04/27 00:26:54;;;;;;;0.10;0.10;;;;;;;;;;4965539;28;20687;-77
2023/04/27 00:29:42;;;;;;;0.10;0.10;;;;;;;;;;4967261;28;20046;-76
2023/04/27 00:32:28;;;;;;;0.10;0.10;;;;;;;;;;4951169;28;20100;-76
2023/04/27 00:35:13;;;;;;;0.10;0.10;;;;;;;;;;4960719;28;20508;-76
2023/04/27 00:38:01;;;;;;;0.10;0.10;;;;;;;;;;4954029;28;20039;-76
2023/04/27 00:40:46;;;;;;;0.10;0.10;;;;;;;;;;4966972;28;20406;-76
2023/04/27 00:43:40;;;;;;;0.20;0.20;;;;;;;;;;4964808;28;20046;-78
2023/04/27 00:46:28;;;;;;;0.10;0.10;;;;;;;;;;4960672;28;20049;-75
2023/04/27 00:49:13;;;;;;;0.10;0.10;;;;;;;;;;4955148;28;20260;-75
2023/04/27 00:51:59;;;;;;;0.10;0.10;;;;;;;;;;4960152;28;20237;-75
2023/04/27 00:54:48;;;;;;;0.10;0.10;;;;;;;;;;4937599;28;20715;-77
2023/04/27 00:57:34;;;;;;;0.10;0.10;;;;;;;;;;4933165;28;20550;-78
2023/04/27 01:00:21;;;;;;;0.10;0.10;;;;;;;;;;4959245;28;20038;-75
2023/04/27 01:03:06;;;;;;;0.10;0.10;;;;;;;;;;4930311;28;20142;-78
2023/04/27 01:05:52;;;;;;;0.10;0.10;;;;;;;;;;4934856;28;20058;-75
2023/04/27 01:08:38;;;;;;;0.20;0.20;;;;;;;;;;4946312;28;20039;-76
2023/04/27 01:11:24;;;;;;;0.10;0.10;;;;;;;;;;4946103;28;20078;-79
2023/04/27 01:14:10;;;;;;;0.10;0.10;;;;;;;;;;4936334;28;20073;-76
2023/04/27 01:16:55;;;;;;;0.17;0.17;;;;;;;;;;4946435;28;20434;-76
2023/04/27 01:19:41;;;;;;;0.10;0.10;;;;;;;;;;4948981;28;20121;-77
2023/04/27 01:22:27;;;;;;;0.17;0.17;;;;;;;;;;4946149;28;20475;-77
2023/04/27 01:25:12;;;;;;;0.10;0.10;;;;;;;;;;4957599;28;20322;-76
2023/04/27 01:27:58;;;;;;;0.10;0.10;;;;;;;;;;4946048;28;20074;-76
2023/04/27 01:30:44;;;;;;;0.20;0.20;;;;;;;;;;4937207;28;20739;-78
2023/04/27 01:33:30;;;;;;;0.20;0.20;;;;;;;;;;4957460;28;20042;-76
2023/04/27 01:36:16;;;;;;;0.10;0.10;;;;;;;;;;4947885;28;20031;-75
2023/04/27 01:39:03;;;;;;;0.10;0.10;;;;;;;;;;4941078;28;20035;-76
2023/04/27 01:41:48;;;;;;;0.10;0.10;;;;;;;;;;4951263;28;20039;-78
2023/04/27 01:44:34;;;;;;;0.10;0.10;;;;;;;;;;4952885;28;20039;-78
2023/04/27 01:47:20;;;;;;;0.10;0.10;;;;;;;;;;4950721;28;20483;-76
2023/04/27 01:50:06;;;;;;;0.10;0.10;;;;;;;;;;4962769;28;20502;-76
2023/04/27 01:52:51;;;;;;;0.20;0.20;;;;;;;;;;4948358;28;20471;-76
2023/04/27 01:55:37;;;;;;;0.20;0.20;;;;;;;;;;4934237;28;20027;-78
2023/04/27 01:58:23;;;;;;;0.15;0.15;;;;;;;;;;4963832;28;20435;-76
2023/04/27 02:01:11;;;;;;;0.10;0.10;;;;;;;;;;4949432;28;20470;-77
2023/04/27 02:03:57;;;;;;;0.10;0.10;;;;;;;;;;4951590;28;20049;-79
2023/04/27 02:06:43;;;;;;;0.10;0.10;;;;;;;;;;4947560;28;20041;-77
2023/04/27 02:09:29;;;;;;;0.10;0.10;;;;;;;;;;4943180;28;20038;-78
2023/04/27 02:12:14;;;;;;;0.10;0.10;;;;;;;;;;4942519;28;20478;-78
2023/04/27 02:15:02;;;;;;;0.10;0.10;;;;;;;;;;4942192;28;20024;-76
2023/04/27 02:17:48;;;;;;;0.10;0.10;;;;;;;;;;4942301;28;20032;-78
2023/04/27 02:20:33;;;;;;;0.10;0.10;;;;;;;;;;4962423;28;20066;-78
2023/04/27 02:23:19;;;;;;;0.10;0.10;;;;;;;;;;4949348;28;20059;-77
2023/04/27 02:26:05;;;;;;;0.13;0.13;;;;;;;;;;4938338;28;20047;-77
2023/04/27 02:28:51;;;;;;;0.10;0.10;;;;;;;;;;4939449;28;20065;-77
2023/04/27 02:31:37;;;;;;;0.10;0.10;;;;;;;;;;4940531;28;20046;-76
2023/04/27 02:34:23;;;;;;;0.10;0.10;;;;;;;;;;4941643;28;20543;-76
2023/04/27 02:37:10;;;;;;;0.20;0.20;;;;;;;;;;4926664;28;20035;-77
2023/04/27 02:39:56;;;;;;;0.10;0.10;;;;;;;;;;4941880;28;20064;-76
2023/04/27 02:42:42;;;;;;;0.20;0.20;;;;;;;;;;4948697;28;20050;-76
2023/04/27 02:45:30;;;;;;;0.10;0.10;;;;;;;;;;4956582;28;20443;-77
2023/04/27 02:48:17;;;;;;;0.20;0.20;;;;;;;;;;4933311;28;20121;-77
2023/04/27 02:51:03;;;;;;;0.10;0.10;;;;;;;;;;4946464;28;20058;-78
2023/04/27 02:53:49;;;;;;;0.10;0.10;;;;;;;;;;4968384;28;20033;-77
2023/04/27 02:56:34;;;;;;;0.10;0.10;;;;;;;;;;4955428;28;20096;-78
2023/04/27 02:59:20;;;;;;;0.10;0.10;;;;;;;;;;4954680;28;20129;-75
2023/04/27 03:02:06;;;;;;;0.20;0.20;;;;;;;;;;4962409;28;20038;-76
2023/04/27 03:04:53;;;;;;;0.10;0.10;;;;;;;;;;4959932;28;20366;-76
2023/04/27 03:07:39;;;;;;;0.10;0.10;;;;;;;;;;4956155;28;20140;-76
2023/04/27 03:10:25;;;;;;;0.10;0.10;;;;;;;;;;4970881;28;20035;-76
2023/04/27 03:13:12;;;;;;;0.20;0.20;;;;;;;;;;4970789;28;20038;-76
2023/04/27 03:15:58;;;;;;;0.20;0.20;;;;;;;;;;4968138;28;20034;-76
2023/04/27 03:18:44;;;;;;;0.10;0.10;;;;;;;;;;4966071;28;20664;-76
2023/04/27 03:21:30;;;;;;;0.17;0.17;;;;;;;;;;4954051;28;20038;-76
2023/04/27 03:24:16;;;;;;;0.20;0.20;;;;;;;;;;4960119;28;20069;-76
2023/04/27 03:27:02;;;;;;;0.20;0.20;;;;;;;;;;4966943;28;20319;-77
2023/04/27 03:29:51;;;;;;;0.10;0.10;;;;;;;;;;4969033;28;20042;-77
2023/04/27 03:32:37;;;;;;;0.10;0.10;;;;;;;;;;4964556;28;20418;-75
2023/04/27 03:35:23;;;;;;;0.13;0.13;;;;;;;;;;4958344;28;20391;-77
2023/04/27 03:38:09;;;;;;;0.10;0.10;;;;;;;;;;4969073;28;20030;-75
2023/04/27 03:40:54;;;;;;;0.10;0.10;;;;;;;;;;4967368;28;20030;-77
2023/04/27 03:43:40;;;;;;;0.10;0.10;;;;;;;;;;4968144;28;20042;-76
2023/04/27 03:46:26;;;;;;;0.10;0.10;;;;;;;;;;4950629;28;20039;-76
2023/04/27 03:49:12;;;;;;;0.10;0.10;;;;;;;;;;4966317;28;20045;-76
2023/04/27 03:51:59;;;;;;;0.10;0.10;;;;;;;;;;4946625;28;20578;-75
2023/04/27 03:54:44;;;;;;;0.10;0.10;;;;;;;;;;4947474;28;20453;-75
2023/04/27 03:57:30;;;;;;;0.15;0.15;;;;;;;;;;4943636;28;20121;-77
2023/04/27 04:00:17;;;;;;;0.10;0.10;;;;;;;;;;4938462;28;20037;-74
2023/04/27 04:03:03;;;;;;;0.13;0.13;;;;;;;;;;4935256;28;20032;-75
2023/04/27 04:05:51;;;;;;;0.10;0.10;;;;;;;;;;4940314;28;20105;-75
2023/04/27 04:08:38;;;;;;;0.20;0.20;;;;;;;;;;4950042;28;20058;-76
2023/04/27 04:11:23;;;;;;;0.13;0.13;;;;;;;;;;4933892;28;20041;-74
2023/04/27 04:14:13;;;;;;;0.10;0.10;;;;;;;;;;4944659;28;20146;-76
2023/04/27 04:16:59;;;;;;;0.10;0.10;;;;;;;;;;4946811;28;20050;-74
2023/04/27 04:19:45;;;;;;;0.10;0.10;;;;;;;;;;4949966;28;20030;-75
2023/04/27 04:22:31;;;;;;;0.10;0.10;;;;;;;;;;4945668;28;20111;-77
2023/04/27 04:25:17;;;;;;;0.20;0.20;;;;;;;;;;4950104;28;20395;-74
2023/04/27 04:28:03;;;;;;;0.13;0.13;;;;;;;;;;4935768;28;20151;-76
2023/04/27 04:30:49;;;;;;;0.10;0.10;;;;;;;;;;4946736;28;20027;-78
2023/04/27 04:33:36;;;;;;;0.17;0.17;;;;;;;;;;4935230;28;20042;-76
2023/04/27 04:36:22;;;;;;;0.10;0.10;;;;;;;;;;4941062;28;20030;-74
2023/04/27 04:39:12;;;;;;;0.10;0.10;;;;;;;;;;4950399;28;20172;-74
2023/04/27 04:41:58;;;;;;;0.10;0.10;;;;;;;;;;4949937;28;20428;-75
2023/04/27 04:44:47;;;;;;;0.10;0.10;;;;;;;;;;4936244;28;20026;-76
2023/04/27 04:47:33;;;;;;;0.10;0.10;;;;;;;;;;4940124;28;20279;-75
2023/04/27 04:50:19;;;;;;;0.10;0.10;;;;;;;;;;4935974;28;20137;-78
2023/04/27 04:53:05;;;;;;;0.20;0.20;;;;;;;;;;4968351;28;20113;-76
2023/04/27 04:55:52;;;;;;;0.10;0.10;;;;;;;;;;4953698;28;20038;-76
2023/04/27 04:58:38;;;;;;;0.10;0.10;;;;;;;;;;4968079;28;20537;-74
2023/04/27 05:01:23;;;;;;;0.17;0.17;;;;;;;;;;4952803;28;20434;-77
2023/04/27 05:04:09;;;;;;;0.15;0.15;;;;;;;;;;4956501;28;20416;-75
2023/04/27 05:06:55;;;;;;;0.10;0.10;;;;;;;;;;4967278;28;20114;-76
2023/04/27 05:09:40;;;;;;;0.13;0.13;;;;;;;;;;4968760;28;20129;-78
2023/04/27 05:12:26;;;;;;;0.10;0.10;;;;;;;;;;4963962;28;20334;-78
2023/04/27 05:15:12;;;;;;;0.20;0.20;;;;;;;;;;4968102;28;20254;-75
2023/04/27 05:17:58;;;;;;;0.10;0.10;;;;;;;;;;4969947;28;20027;-76
2023/04/27 05:20:44;;;;;;;0.10;0.10;;;;;;;;;;4966003;28;20042;-76
2023/04/27 05:23:30;;;;;;;0.20;0.20;;;;;;;;;;4952182;28;20502;-77
2023/04/27 05:26:16;;;;;;;0.10;0.10;;;;;;;;;;4966141;28;20046;-77
2023/04/27 05:29:02;;;;;;;0.10;0.10;;;;;;;;;;4967917;28;20042;-77
2023/04/27 05:31:48;;;;;;;0.20;0.20;;;;;;;;;;4964893;28;20034;-78
2023/04/27 05:34:34;;;;;;;0.10;0.10;;;;;;;;;;4967720;28;20041;-75
2023/04/27 05:37:19;;;;;;;0.10;0.10;;;;;;;;;;4965466;28;20070;-76
2023/04/27 05:40:08;;;;;;;0.10;0.10;;;;;;;;;;4944945;28;20051;-79
2023/04/27 05:42:54;;;;;;;0.10;0.10;;;;;;;;;;4965362;28;20447;-77
2023/04/27 05:45:40;;;;;;;0.10;0.10;;;;;;;;;;4966965;28;20194;-76
2023/04/27 05:48:26;;;;;;;0.10;0.10;;;;;;;;;;4965422;28;20138;-75
2023/04/27 05:51:12;;;;;;;0.20;0.20;;;;;;;;;;4964531;28;20930;-76
2023/04/27 05:54:00;;;;;;;0.10;0.10;;;;;;;;;;4967886;28;20153;-75
2023/04/27 05:56:46;;;;;;;0.20;0.20;;;;;;;;;;4967666;28;20468;-77
2023/04/27 05:59:32;;;;;;;0.20;0.20;;;;;;;;;;4967931;28;20026;-75
2023/04/27 06:02:18;;;;;;;0.10;0.10;;;;;;;;;;4964585;28;20046;-76
2023/04/27 06:05:04;;;;;;;0.20;0.20;;;;;;;;;;4965695;28;20066;-77
2023/04/27 06:07:49;;;;;;;0.10;0.10;;;;;;;;;;4965906;28;20034;-77
2023/04/27 06:10:35;;;;;;;0.10;0.10;;;;;;;;;;4964753;28;20037;-75
2023/04/27 06:13:21;;;;;;;0.20;0.20;;;;;;;;;;4963593;28;20043;-79
2023/04/27 06:16:07;;;;;;;0.10;0.10;;;;;;;;;;4966311;28;20514;-76
2023/04/27 06:18:52;;;;;;;0.10;0.10;;;;;;;;;;4967780;28;20041;-75
2023/04/27 06:21:38;;;;;;;0.10;0.10;;;;;;;;;;4966181;28;20034;-76
2023/04/27 06:24:24;;;;;;;0.10;0.10;;;;;;;;;;4968616;28;20058;-74
2023/04/27 06:27:10;;;;;;;0.15;0.15;;;;;;;;;;4968438;28;20034;-75
2023/04/27 06:29:57;;;;;;;0.20;0.20;;;;;;;;;;4969081;28;20034;-75
2023/04/27 06:32:42;;;;;;;0.17;0.17;;;;;;;;;;4968354;28;20040;-76
2023/04/27 06:35:28;;;;;;;0.20;0.20;;;;;;;;;;4970571;28;20043;-77
2023/04/27 06:38:14;;;;;;;0.10;0.10;;;;;;;;;;4970030;28;20450;-78
2023/04/27 06:41:00;;;;;;;0.10;0.10;;;;;;;;;;4960917;28;20053;-77
2023/04/27 06:43:45;;;;;;;0.10;0.10;;;;;;;;;;4970187;28;20026;-76
2023/04/27 06:46:31;;;;;;;0.10;0.10;;;;;;;;;;4959150;28;20165;-76
2023/04/27 06:49:17;;;;;;;0.20;0.20;;;;;;;;;;4960250;28;20476;-75
2023/04/27 06:52:04;;;;;;;0.10;0.10;;;;;;;;;;4966869;28;20043;-77
2023/04/27 06:54:50;;;;;;;0.10;0.10;;;;;;;;;;4962829;28;20546;-75
2023/04/27 06:57:35;;;;;;;0.10;0.10;;;;;;;;;;4969202;28;20129;-74
2023/04/27 07:00:21;;;;;;;0.10;0.10;;;;;;;;;;4961333;28;20560;-77
2023/04/27 07:03:07;;;;;;;0.10;0.10;;;;;;;;;;4969815;28;20066;-77
2023/04/27 07:05:53;;;;;;;0.17;0.17;;;;;;;;;;4967004;28;20030;-75
2023/04/27 07:08:39;;;;;;;0.10;0.10;;;;;;;;;;4970975;28;20109;-74
2023/04/27 07:11:25;;;;;;;0.10;0.10;;;;;;;;;;4968017;28;20499;-75
2023/04/27 07:14:10;;;;;;;0.10;0.10;;;;;;;;;;4970231;28;20034;-77
2023/04/27 07:16:56;;;;;;;0.13;0.13;;;;;;;;;;4969899;28;20045;-78
2023/04/27 07:19:42;;;;;;;0.20;0.20;;;;;;;;;;4969951;28;20613;-75
2023/04/27 07:22:27;;;;;;;0.10;0.10;;;;;;;;;;4969467;28;20035;-75
2023/04/27 07:25:13;;;;;;;0.20;0.20;;;;;;;;;;4971842;28;20039;-75
2023/04/27 07:27:59;;;;;;;0.20;0.20;;;;;;;;;;4969083;28;20026;-76
2023/04/27 07:30:45;;;;;;;0.13;0.13;;;;;;;;;;4953325;28;20042;-76
2023/04/27 07:33:31;;;;;;;0.10;0.10;;;;;;;;;;4967474;28;20023;-78
2023/04/27 07:36:20;;;;;;;0.15;0.15;;;;;;;;;;4968272;28;20447;-75
2023/04/27 07:39:07;;;;;;;0.10;0.10;;;;;;;;;;4960166;28;20524;-75
2023/04/27 07:41:55;;;;;;;0.10;0.10;;;;;;;;;;4958396;28;20486;-75
2023/04/27 07:44:41;;;;;;;0.20;0.20;;;;;;;;;;4967103;28;20070;-77
2023/04/27 07:47:27;;;;;;;0.10;0.10;;;;;;;;;;4967236;28;20085;-75
2023/04/27 07:50:16;;;;;;;0.10;0.10;;;;;;;;;;4967485;28;20431;-75
2023/04/27 07:53:02;;;;;;;0.10;0.10;;;;;;;;;;4949131;28;20039;-77
2023/04/27 07:55:48;;;;;;;0.10;0.10;;;;;;;;;;4948803;28;20122;-76
2023/04/27 07:58:33;;;;;;;0.10;0.10;;;;;;;;;;4948664;28;20042;-77
2023/04/27 08:01:20;;;;;;;0.10;0.10;;;;;;;;;;4936363;28;20658;-77
2023/04/27 08:04:05;;;;;;;0.10;0.10;;;;;;;;;;4948282;28;20039;-74
2023/04/27 08:06:51;;;;;;;0.10;0.10;;;;;;;;;;4946573;28;20053;-75
2023/04/27 08:09:37;;;;;;;0.10;0.10;;;;;;;;;;4948461;28;20031;-74
2023/04/27 08:12:23;;;;;;;0.17;0.17;;;;;;;;;;4946225;28;20035;-76
2023/04/27 08:15:09;;;;;;;0.10;0.10;;;;;;;;;;4946897;28;20035;-75
2023/04/27 08:17:55;;;;;;;0.10;0.10;;;;;;;;;;4945037;28;20127;-77
2023/04/27 08:20:41;;;;;;;0.10;0.10;;;;;;;;;;4946541;28;20073;-74
2023/04/27 08:23:28;;;;;;;0.10;0.10;;;;;;;;;;4947626;28;20050;-76
2023/04/27 08:26:14;;;;;;;0.10;0.10;;;;;;;;;;4947630;28;20046;-76
2023/04/27 08:29:00;;;;;;;0.13;0.13;;;;;;;;;;4949692;28;20039;-78
2023/04/27 08:31:46;;;;;;;0.10;0.10;;;;;;;;;;4946117;28;20043;-76
2023/04/27 08:34:32;;;;;;;0.20;0.20;;;;;;;;;;4935827;28;20167;-73
2023/04/27 08:37:18;;;;;;;0.10;0.10;;;;;;;;;;4945251;28;20046;-75
2023/04/27 08:40:05;;;;;;;0.10;0.10;;;;;;;;;;4946400;28;20045;-75
2023/04/27 08:42:57;;;;;;;0.20;0.20;;;;;;;;;;4944644;28;20562;-77
2023/04/27 08:45:47;;;;;;;0.15;0.15;;;;;;;;;;4935461;28;20656;-75
2023/04/27 08:48:33;;;;;;;0.10;0.10;;;;;;;;;;4944978;28;20043;-76
2023/04/27 08:51:19;;;;;;;0.10;0.10;;;;;;;;;;4952021;28;20059;-77
2023/04/27 08:54:04;;;;;;;0.10;0.10;;;;;;;;;;4968361;28;20046;-76
2023/04/27 08:56:50;;;;;;;0.10;0.10;;;;;;;;;;4950465;28;20938;-75
2023/04/27 08:59:36;;;;;;;0.10;0.10;;;;;;;;;;4968944;28;20050;-75
2023/04/27 09:02:22;;;;;;;0.10;0.10;;;;;;;;;;4957420;28;20152;-78
2023/04/27 09:05:14;;;;;;;0.10;0.10;;;;;;;;;;4964698;28;20047;-76
2023/04/27 09:08:07;;;;;;;0.10;0.10;;;;;;;;;;4964252;28;20027;-76
2023/04/27 09:10:53;;;;;;;0.10;0.10;;;;;;;;;;4963202;28;20086;-76
2023/04/27 09:13:41;;;;;;;0.10;0.10;;;;;;;;;;4966417;28;20534;-77
2023/04/27 09:16:28;;;;;;;0.10;0.10;;;;;;;;;;4965330;28;20114;-74
2023/04/27 09:19:22;;;;;;;0.10;0.10;;;;;;;;;;4968374;28;20038;-75
2023/04/27 09:22:09;;;;;;;0.10;0.10;;;;;;;;;;4966098;28;20039;-74
2023/04/27 09:24:55;;;;;;;0.10;0.10;;;;;;;;;;4945775;28;20026;-75
2023/04/27 09:27:42;;;;;;;0.17;0.17;;;;;;;;;;4965505;28;20497;-78
2023/04/27 09:30:28;;;;;;;0.10;0.10;;;;;;;;;;4966268;28;20053;-76
2023/04/27 09:33:14;;;;;;;0.10;0.10;;;;;;;;;;4966037;28;20038;-78
2023/04/27 09:36:01;;;;;;;0.10;0.10;;;;;;;;;;4965973;28;20027;-78
2023/04/27 09:38:48;;;;;;;0.10;0.10;;;;;;;;;;4965854;28;20035;-77
2023/04/27 09:41:34;;;;;;;0.10;0.10;;;;;;;;;;4966051;28;20491;-75
2023/04/27 09:44:20;;;;;;;0.10;0.10;;;;;;;;;;4952190;28;20035;-76
2023/04/27 09:47:06;;;;;;;0.15;0.15;;;;;;;;;;4965323;28;20047;-77
2023/04/27 09:49:52;;;;;;;0.10;0.10;;;;;;;;;;4966494;28;20272;-75
2023/04/27 09:52:38;;;;;;;0.10;0.10;;;;;;;;;;4963203;28;20046;-75
2023/04/27 09:55:27;;;;;;;0.20;0.20;;;;;;;;;;4956479;28;20165;-75
2023/04/27 09:58:19;;;;;;;0.20;0.20;;;;;;;;;;4965659;28;20635;-77
2023/04/27 10:01:04;;;;;;;0.20;0.20;;;;;;;;;;4965319;28;20062;-76
2023/04/27 10:03:59;;;;;;;0.10;0.10;;;;;;;;;;4969275;28;20041;-75
2023/04/27 10:06:51;;;;;;;0.10;0.10;;;;;;;;;;4968114;28;20031;-75
2023/04/27 10:09:47;;;;;;;0.15;0.15;;;;;;;;;;4969387;28;20109;-73
2023/04/27 10:12:35;;;;;;;0.10;0.10;;;;;;;;;;4968737;28;20073;-75
2023/04/27 10:15:24;;;;;;;0.10;0.10;;;;;;;;;;4969443;28;20062;-76
2023/04/27 10:18:10;;;;;;;0.10;0.10;;;;;;;;;;4970755;28;20133;-76
2023/04/27 10:20:57;;;;;;;0.10;0.10;;;;;;;;;;4960906;28;20490;-75
2023/04/27 10:23:47;;;;;;;0.10;0.10;;;;;;;;;;4968826;28;20106;-76
2023/04/27 10:26:33;;;;;;;0.10;0.10;;;;;;;;;;4968165;28;20085;-76
2023/04/27 10:29:19;;;;;;;0.20;0.20;;;;;;;;;;4949227;28;20035;-77
2023/04/27 10:32:05;;;;;;;0.15;0.15;;;;;;;;;;4966054;28;20550;-77
2023/04/27 10:35:06;;;;;;;0.10;0.10;;;;;;;;;;4970286;28;20587;-74
2023/04/27 10:37:52;;;;;;;0.10;0.10;;;;;;;;;;4968272;28;20060;-73
2023/04/27 10:40:37;;;;;;;0.20;0.20;;;;;;;;;;4967486;28;20042;-74
2023/04/27 10:43:27;;;;;;;0.20;0.20;;;;;;;;;;4969835;28;20031;-75
2023/04/27 10:46:14;;;;;;;0.10;0.10;;;;;;;;;;4970604;28;20038;-76
2023/04/27 10:49:00;;;;;;;0.10;0.10;;;;;;;;;;4970786;28;20039;-77
2023/04/27 10:51:46;;;;;;;0.10;0.10;;;;;;;;;;4968701;28;20050;-77
2023/04/27 10:54:32;;;;;;;0.20;0.20;;;;;;;;;;4971258;28;20053;-76
2023/04/27 10:57:18;;;;;;;0.20;0.20;;;;;;;;;;4971117;28;20531;-75
2023/04/27 11:00:04;;;;;;;0.10;0.10;;;;;;;;;;4959878;28;20486;-76
2023/04/27 11:02:51;;;;;;;0.10;0.10;;;;;;;;;;4969465;28;20034;-77
2023/04/27 11:05:36;;;;;;;0.10;0.10;;;;;;;;;;4970974;28;20037;-76
2023/04/27 11:08:22;;;;;;;0.10;0.10;;;;;;;;;;4955710;28;20364;-76
2023/04/27 11:11:12;;;;;;;0.10;0.10;;;;;;;;;;4967053;28;20411;-76
2023/04/27 11:13:58;;;;;;;0.20;0.20;;;;;;;;;;4970115;28;20123;-75
2023/04/27 11:16:47;;;;;;;0.20;0.20;;;;;;;;;;4966883;28;20035;-77
2023/04/27 11:19:42;;;;;;;0.13;0.13;;;;;;;;;;4969105;28;20039;-77
2023/04/27 11:22:28;;;;;;;0.20;0.20;;;;;;;;;;4953539;28;20414;-76
2023/04/27 11:25:14;;;;;;;0.20;0.20;;;;;;;;;;4970188;28;20561;-76
2023/04/27 11:27:59;;;;;;;0.20;0.20;;;;;;;;;;4968722;28;20038;-77
2023/04/27 11:30:45;;;;;;;0.20;0.20;;;;;;;;;;4965462;28;20127;-78
2023/04/27 11:33:31;;;;;;;0.10;0.10;;;;;;;;;;4966915;28;20406;-78
2023/04/27 11:36:18;;;;;;;0.10;0.10;;;;;;;;;;4966774;28;20618;-78
2023/04/27 11:39:05;;;;;;;0.10;0.10;;;;;;;;;;4959581;28;20359;-77
2023/04/27 11:41:50;;;;;;;0.10;0.10;;;;;;;;;;4967372;28;20065;-77
2023/04/27 11:44:36;;;;;;;0.10;0.10;;;;;;;;;;4957570;28;20185;-78
2023/04/27 11:47:24;;;;;;;0.20;0.20;;;;;;;;;;4958296;28;20577;-76
2023/04/27 11:50:09;;;;;;;0.20;0.20;;;;;;;;;;4968602;28;20085;-78
2023/04/27 11:52:59;;;;;;;0.20;0.20;;;;;;;;;;4967640;28;20502;-78
2023/04/27 11:55:50;;;;;;;0.20;0.20;;;;;;;;;;4967269;28;20377;-76
2023/04/27 11:58:37;;;;;;;0.10;0.10;;;;;;;;;;4959555;28;20070;-75
2023/04/27 12:01:23;;;;;;;0.20;0.20;;;;;;;;;;4965469;28;20502;-79
2023/04/27 12:04:09;;;;;;;0.10;0.10;;;;;;;;;;4968842;28;20034;-76
2023/04/27 12:06:55;;;;;;;0.17;0.17;;;;;;;;;;4958474;28;20475;-76
2023/04/27 12:09:41;;;;;;;0.20;0.20;;;;;;;;;;4959852;28;20561;-78
2023/04/27 12:12:26;;;;;;;0.20;0.20;;;;;;;;;;4960201;28;20077;-76
2023/04/27 12:15:12;;;;;;;0.20;0.20;;;;;;;;;;4967962;28;20039;-78
2023/04/27 12:17:58;;;;;;;0.10;0.10;;;;;;;;;;4956372;28;20451;-77
2023/04/27 12:20:43;;;;;;;0.20;0.20;;;;;;;;;;4966476;28;20317;-76
2023/04/27 12:23:29;;;;;;;0.10;0.10;;;;;;;;;;4966717;28;20371;-78
2023/04/27 12:26:15;;;;;;;0.20;0.20;;;;;;;;;;4966276;28;20134;-77
2023/04/27 12:29:03;;;;;;;0.10;0.10;;;;;;;;;;4968348;28;20352;-77
2023/04/27 12:31:49;;;;;;;0.10;0.10;;;;;;;;;;4967817;28;20069;-79
2023/04/27 12:34:35;;;;;;;0.10;0.10;;;;;;;;;;4960138;28;20434;-77
2023/04/27 12:37:21;;;;;;;0.10;0.10;;;;;;;;;;4946540;28;21243;-78
2023/04/27 12:40:07;;;;;;;0.13;0.13;;;;;;;;;;4955245;28;20093;-77
2023/04/27 12:42:53;;;;;;;0.10;0.10;;;;;;;;;;4959549;28;20026;-77
2023/04/27 12:45:39;;;;;;;0.20;0.20;;;;;;;;;;4967283;28;20487;-78
2023/04/27 12:48:25;;;;;;;0.20;0.20;;;;;;;;;;4966515;28;20030;-77
2023/04/27 12:51:11;;;;;;;0.10;0.10;;;;;;;;;;4966827;28;20042;-78
2023/04/27 12:53:57;;;;;;;0.10;0.10;;;;;;;;;;4951713;28;20333;-79
2023/04/27 12:56:43;;;;;;;0.10;0.10;;;;;;;;;;4965119;28;20069;-77
2023/04/27 12:59:29;;;;;;;0.10;0.10;;;;;;;;;;4968704;28;20307;-77
2023/04/27 13:02:15;;;;;;;0.10;0.10;;;;;;;;;;4966113;28;20419;-76
2023/04/27 13:05:01;;;;;;;0.10;0.10;;;;;;;;;;4954940;28;20114;-79
2023/04/27 13:07:47;;;;;;;0.10;0.10;;;;;;;;;;4964907;28;20130;-78
2023/04/27 13:10:32;;;;;;;0.10;0.10;;;;;;;;;;4966390;28;20476;-77
2023/04/27 13:13:18;;;;;;;0.13;0.13;;;;;;;;;;4967553;28;20354;-76
2023/04/27 13:16:04;;;;;;;0.20;0.20;;;;;;;;;;4954553;28;20085;-77
2023/04/27 13:18:51;;;;;;;0.10;0.10;;;;;;;;;;4965974;28;20026;-79
2023/04/27 13:21:36;;;;;;;0.10;0.10;;;;;;;;;;4964188;28;20034;-77
2023/04/27 13:24:23;;;;;;;0.10;0.10;;;;;;;;;;4968607;28;20093;-78
2023/04/27 13:27:09;;;;;;;0.10;0.10;;;;;;;;;;4964822;28;20366;-77
2023/04/27 13:29:54;;;;;;;0.10;0.10;;;;;;;;;;4964113;28;20439;-79
2023/04/27 13:32:40;;;;;;;0.00;0.00;;;;;;;;;;4952210;28;20050;-76
2023/04/27 13:35:26;;;;;;;0.10;0.10;;;;;;;;;;4957358;28;20479;-78
2023/04/27 13:38:12;;;;;;;0.10;0.10;;;;;;;;;;4971060;28;20039;-76
2023/04/27 13:40:57;;;;;;;0.10;0.10;;;;;;;;;;4969281;28;20086;-78
2023/04/27 13:43:43;;;;;;;0.10;0.10;;;;;;;;;;4970719;28;20038;-79
2023/04/27 13:46:29;;;;;;;0.10;0.10;;;;;;;;;;4967783;28;20137;-77
2023/04/27 13:49:15;;;;;;;0.10;0.10;;;;;;;;;;4970936;28;20049;-74
2023/04/27 13:52:00;;;;;;;0.13;0.13;;;;;;;;;;4944793;28;20126;-79
2023/04/27 13:54:46;;;;;;;0.10;0.10;;;;;;;;;;4950619;28;20058;-80
2023/04/27 13:57:32;;;;;;;0.00;0.00;;;;;;;;;;4949935;28;20039;-80
2023/04/27 14:00:18;;;;;;;0.00;0.00;;;;;;;;;;4948277;28;20043;-76
2023/04/27 14:03:04;;;;;;;0.10;0.10;;;;;;;;;;4949660;28;20071;-76
2023/04/27 14:05:50;;;;;;;0.10;0.10;;;;;;;;;;4950351;28;20111;-76
2023/04/27 14:08:35;;;;;;;0.10;0.10;;;;;;;;;;4941648;28;20122;-76
2023/04/27 14:11:22;;;;;;;0.10;0.10;;;;;;;;;;4926404;28;20023;-78
2023/04/27 14:14:07;;;;;;;0.20;0.20;;;;;;;;;;4943389;28;20109;-79
2023/04/27 14:16:54;;;;;;;0.10;0.10;;;;;;;;;;4948754;28;20512;-76
2023/04/27 14:19:39;;;;;;;0.10;0.10;;;;;;;;;;4949228;28;20118;-76
2023/04/27 14:22:25;;;;;;;0.10;0.10;;;;;;;;;;4949293;28;20094;-76
2023/04/27 14:25:11;;;;;;;0.20;0.20;;;;;;;;;;4943453;28;20110;-79
2023/04/27 14:27:57;;;;;;;0.10;0.10;;;;;;;;;;4952467;28;20612;-78
2023/04/27 14:30:43;;;;;;;0.10;0.10;;;;;;;;;;4943217;28;20046;-78
2023/04/27 14:33:28;;;;;;;0.10;0.10;;;;;;;;;;4951328;28;20058;-77
2023/04/27 14:36:16;;;;;;;0.10;0.10;;;;;;;;;;4935922;28;20732;-79
2023/04/27 14:39:03;;;;;;;0.00;0.00;;;;;;;;;;4950776;28;20507;-81
2023/04/27 14:41:49;;;;;;;0.00;0.00;;;;;;;;;;4940700;28;20065;-78
2023/04/27 14:44:35;;;;;;;0.10;0.10;;;;;;;;;;4952218;28;20034;-76
2023/04/27 14:47:21;;;;;;;0.10;0.10;;;;;;;;;;4948840;28;20046;-80
2023/04/27 14:50:07;;;;;;;0.10;0.10;;;;;;;;;;4941943;28;20046;-77
2023/04/27 14:52:57;;;;;;;0.10;0.10;;;;;;;;;;4968272;28;20054;-79
2023/04/27 14:55:44;;;;;;;0.10;0.10;;;;;;;;;;4969053;28;20737;-77
2023/04/27 14:58:33;;;;;;;0.10;0.10;;;;;;;;;;4969389;28;20595;-80
2023/04/27 15:01:18;;;;;;;0.52;0.10;;;;;;;;;;4967098;28;20354;-77
2023/04/27 15:04:05;;;;;;;0.10;0.10;;;;;;;;;;4969531;28;20038;-76
2023/04/27 15:06:51;;;;;;;0.10;0.10;;;;;;;;;;4966612;28;21370;-75
2023/04/27 15:09:36;;;;;;;0.10;0.10;;;;;;;;;;4970215;28;20046;-76
2023/04/27 15:12:22;;;;;;;0.10;0.10;;;;;;;;;;4970060;28;20031;-77
2023/04/27 15:15:08;;;;;;;0.10;0.10;;;;;;;;;;4969825;28;20027;-76
2023/04/27 15:17:53;;;;;;;0.10;0.10;;;;;;;;;;4967964;28;20589;-77
2023/04/27 15:20:40;;;;;;;0.10;0.10;;;;;;;;;;4969736;28;20141;-78
2023/04/27 15:23:26;;;;;;;0.10;0.10;;;;;;;;;;4970779;28;20039;-78
2023/04/27 15:26:11;;;;;;;0.00;0.00;;;;;;;;;;4968402;28;20824;-75
2023/04/27 15:28:58;;;;;;;0.10;0.10;;;;;;;;;;4961504;28;20411;-78
2023/04/27 15:31:45;;;;;;;0.10;0.10;;;;;;;;;;4968341;28;20043;-76
2023/04/27 15:34:31;;;;;;;0.10;0.10;;;;;;;;;;4964263;28;20054;-78
2023/04/27 15:37:17;;;;;;;0.10;0.10;;;;;;;;;;4948421;28;20141;-76
2023/04/27 15:40:03;;;;;;;0.10;0.10;;;;;;;;;;4957671;28;20105;-77
2023/04/27 15:42:49;;;;;;;0.10;0.10;;;;;;;;;;4967943;28;20269;-78
2023/04/27 15:45:35;;;;;;;0.10;0.10;;;;;;;;;;4966198;28;20603;-76
2023/04/27 15:48:21;;;;;;;0.15;0.15;;;;;;;;;;4967803;28;20157;-78
2023/04/27 15:51:09;;;;;;;0.10;0.10;;;;;;;;;;4967921;28;20234;-77
2023/04/27 15:53:55;;;;;;;0.20;0.20;;;;;;;;;;4966213;28;20104;-76
2023/04/27 15:56:40;;;;;;;0.10;0.10;;;;;;;;;;4968387;28;20109;-80
2023/04/27 15:59:26;;;;;;;0.03;0.03;;;;;;;;;;4967146;28;20034;-77
2023/04/27 16:02:12;;;;;;;0.00;0.00;;;;;;;;;;4960230;28;20051;-79
2023/04/27 16:04:58;;;;;;;0.10;0.10;;;;;;;;;;4957705;28;20082;-79
2023/04/27 16:07:44;;;;;;;0.10;0.10;;;;;;;;;;4966652;28;20038;-78
2023/04/27 16:10:30;;;;;;;0.10;0.10;;;;;;;;;;4966167;28;20086;-80
2023/04/27 16:13:15;;;;;;;0.10;0.10;;;;;;;;;;4969313;28;20034;-79
2023/04/27 16:16:03;;;;;;;0.10;0.10;;;;;;;;;;4966057;28;20043;-77
2023/04/27 16:18:48;;;;;;;0.10;0.10;;;;;;;;;;4969620;28;20093;-75
2023/04/27 16:21:34;;;;;;;0.00;0.00;;;;;;;;;;4966659;28;20068;-79
2023/04/27 16:24:20;;;;;;;0.10;0.10;;;;;;;;;;4967699;28;20534;-76
2023/04/27 16:27:06;;;;;;;0.10;0.10;;;;;;;;;;4965485;28;20043;-77
2023/04/27 16:29:52;;;;;;;0.10;0.10;;;;;;;;;;4970827;28;20561;-76
2023/04/27 16:32:37;;;;;;;0.10;0.10;;;;;;;;;;4965565;28;20408;-77
2023/04/27 16:35:23;;;;;;;0.10;0.10;;;;;;;;;;4967717;28;20177;-77
2023/04/27 16:38:09;;;;;;;0.10;0.10;;;;;;;;;;4958804;28;20030;-76